Time;durP1;ratioP1;P1;durP2;ratioP2;P2;SDS_P1;SDS_P2;PMS_P1;PMS_P2;Temp;Humidity;BMP_temperature;BMP_pressure;BME280_temperature;BME280_humidity;BME280_pressure;Samples;Min_cycle;Max_cycle;Signal;HPM_P1;HPM_P2
2021/12/26 06:02:43;;;;;;;1999.90;999.90;;;;;;;;;;5172640;22;20855;-71
2021/12/26 06:05:28;;;;;;;1999.90;999.90;;;;;;;;;;5031978;28;20420;-71
2021/12/26 06:08:13;;;;;;;1999.90;999.90;;;;;;;;;;5031404;28;20477;-71
2021/12/26 06:10:58;;;;;;;1999.90;999.90;;;;;;;;;;5031445;28;21072;-71
2021/12/26 06:13:43;;;;;;;1999.90;999.90;;;;;;;;;;5032014;28;20539;-70
2021/12/26 06:16:27;;;;;;;1999.90;999.90;;;;;;;;;;5031688;28;20411;-71
2021/12/26 06:19:14;;;;;;;1999.90;999.90;;;;;;;;;;5031295;28;20432;-71
2021/12/26 06:21:59;;;;;;;1999.90;999.90;;;;;;;;;;5031573;28;20451;-71
2021/12/26 06:24:44;;;;;;;1999.90;999.90;;;;;;;;;;5031767;28;20432;-71
2021/12/26 06:27:29;;;;;;;1999.90;999.90;;;;;;;;;;5031528;28;20415;-71
2021/12/26 06:30:14;;;;;;;1999.90;999.90;;;;;;;;;;5031498;28;20428;-70
2021/12/26 06:32:59;;;;;;;1999.90;999.90;;;;;;;;;;5031689;28;20475;-71
2021/12/26 06:35:45;;;;;;;1999.90;999.90;;;;;;;;;;5031500;28;20505;-71
2021/12/26 06:38:31;;;;;;;1999.90;999.90;;;;;;;;;;5031235;28;20411;-71
2021/12/26 06:41:16;;;;;;;1999.90;999.90;;;;;;;;;;5031433;28;20434;-70
2021/12/26 06:44:01;;;;;;;1999.90;999.90;;;;;;;;;;5031653;28;21052;-71
2021/12/26 06:46:46;;;;;;;1999.90;999.90;;;;;;;;;;5031365;28;20412;-71
2021/12/26 06:49:31;;;;;;;1999.90;999.90;;;;;;;;;;5030961;28;20487;-70
2021/12/26 06:52:19;;;;;;;1999.90;999.90;;;;;;;;;;5031252;28;20439;-71
2021/12/26 06:55:04;;;;;;;1999.90;999.90;;;;;;;;;;5031388;28;20416;-71
2021/12/26 06:57:49;;;;;;;1999.90;999.90;;;;;;;;;;5031076;28;20411;-71
2021/12/26 07:00:35;;;;;;;1999.90;999.90;;;;;;;;;;5034106;28;20435;-71
2021/12/26 07:03:20;;;;;;;1999.90;999.90;;;;;;;;;;5034994;28;20419;-71
2021/12/26 07:06:05;;;;;;;1999.90;999.90;;;;;;;;;;5034081;28;20441;-71
2021/12/26 07:08:51;;;;;;;1999.90;999.90;;;;;;;;;;5034435;28;20296;-71
2021/12/26 07:11:36;;;;;;;1999.90;999.90;;;;;;;;;;5034780;28;20494;-71
2021/12/26 07:14:21;;;;;;;1999.90;999.90;;;;;;;;;;5034840;28;20836;-71
2021/12/26 07:17:06;;;;;;;1999.90;999.90;;;;;;;;;;5034751;28;20639;-71
2021/12/26 07:19:51;;;;;;;1999.90;999.90;;;;;;;;;;5034402;28;20941;-70
2021/12/26 07:22:36;;;;;;;1999.90;999.90;;;;;;;;;;5034488;28;20434;-71
2021/12/26 07:25:23;;;;;;;1999.90;999.90;;;;;;;;;;5034744;28;21045;-71
2021/12/26 07:28:07;;;;;;;1999.90;999.90;;;;;;;;;;5034110;28;20415;-71
2021/12/26 07:30:52;;;;;;;1999.90;999.90;;;;;;;;;;5034550;28;20431;-72
2021/12/26 07:33:37;;;;;;;1999.90;999.90;;;;;;;;;;5034465;28;20423;-70
2021/12/26 07:36:22;;;;;;;1999.90;999.90;;;;;;;;;;5034373;28;20411;-71
2021/12/26 07:39:07;;;;;;;1999.90;999.90;;;;;;;;;;5034042;28;20499;-71
2021/12/26 07:41:54;;;;;;;1999.90;999.90;;;;;;;;;;5034415;28;20436;-71
2021/12/26 07:44:39;;;;;;;1999.90;999.90;;;;;;;;;;5033955;28;20415;-71
2021/12/26 07:47:23;;;;;;;1999.90;999.90;;;;;;;;;;5034165;28;20949;-72
2021/12/26 07:50:09;;;;;;;1999.90;999.90;;;;;;;;;;5033827;28;20467;-71
2021/12/26 07:52:58;;;;;;;1999.90;999.90;;;;;;;;;;5034581;28;20969;-72
2021/12/26 07:55:43;;;;;;;1999.90;999.90;;;;;;;;;;5034355;28;20419;-71
2021/12/26 07:58:29;;;;;;;1999.90;999.90;;;;;;;;;;5033791;28;20422;-71
2021/12/26 08:01:14;;;;;;;1999.90;999.90;;;;;;;;;;5033552;28;20501;-71
2021/12/26 08:04:01;;;;;;;1999.90;999.90;;;;;;;;;;5033687;28;20420;-71
2021/12/26 08:06:47;;;;;;;1999.90;999.90;;;;;;;;;;5034005;28;20479;-71
2021/12/26 08:09:32;;;;;;;1999.90;999.90;;;;;;;;;;5033307;28;20462;-71
2021/12/26 08:12:16;;;;;;;1999.90;999.90;;;;;;;;;;5032578;28;20961;-71
2021/12/26 08:15:03;;;;;;;1999.90;999.90;;;;;;;;;;5033946;28;20418;-71
2021/12/26 08:17:48;;;;;;;1999.90;999.90;;;;;;;;;;5033343;28;20415;-71
2021/12/26 08:20:33;;;;;;;1999.90;999.90;;;;;;;;;;5033514;28;20436;-71
2021/12/26 08:23:18;;;;;;;1999.90;999.90;;;;;;;;;;5033325;28;20898;-70
2021/12/26 08:26:04;;;;;;;1999.90;999.90;;;;;;;;;;5033393;28;20422;-71
2021/12/26 08:28:49;;;;;;;1999.90;999.90;;;;;;;;;;5033126;28;20465;-71
2021/12/26 08:31:36;;;;;;;1999.90;999.90;;;;;;;;;;5032212;28;20469;-69
2021/12/26 08:34:22;;;;;;;1999.90;999.90;;;;;;;;;;5033363;28;20206;-70
2021/12/26 08:37:07;;;;;;;1999.90;999.90;;;;;;;;;;5032997;28;20423;-70
2021/12/26 08:39:53;;;;;;;1999.90;999.90;;;;;;;;;;5032817;28;20407;-70
2021/12/26 08:42:37;;;;;;;1999.90;999.90;;;;;;;;;;5033109;28;20443;-70
2021/12/26 08:45:22;;;;;;;1999.90;999.90;;;;;;;;;;5033156;28;20595;-70
2021/12/26 08:48:09;;;;;;;1999.90;999.90;;;;;;;;;;5032735;28;20510;-70
2021/12/26 08:50:55;;;;;;;1999.90;999.90;;;;;;;;;;5032907;28;20501;-72
2021/12/26 08:53:40;;;;;;;1999.90;999.90;;;;;;;;;;5033005;28;20395;-72
2021/12/26 08:56:25;;;;;;;1999.90;999.90;;;;;;;;;;5032906;28;20459;-72
2021/12/26 08:59:10;;;;;;;1999.90;999.90;;;;;;;;;;5032221;28;20407;-71
2021/12/26 09:01:55;;;;;;;1999.90;999.90;;;;;;;;;;5032304;28;20357;-72
2021/12/26 09:04:41;;;;;;;1999.90;999.90;;;;;;;;;;5033163;28;20498;-72
2021/12/26 09:07:28;;;;;;;1999.90;999.90;;;;;;;;;;5032681;28;20414;-72
2021/12/26 09:10:14;;;;;;;1999.90;999.90;;;;;;;;;;5032284;28;20545;-72
2021/12/26 09:12:59;;;;;;;1999.90;999.90;;;;;;;;;;5032660;28;20902;-72
2021/12/26 09:15:44;;;;;;;1999.90;999.90;;;;;;;;;;5032652;28;20475;-72
2021/12/26 09:18:29;;;;;;;1999.90;999.90;;;;;;;;;;5032118;28;20415;-72
2021/12/26 09:21:16;;;;;;;1999.90;999.90;;;;;;;;;;5032364;28;20817;-72
2021/12/26 09:24:00;;;;;;;1999.90;999.90;;;;;;;;;;5032176;28;20941;-72
2021/12/26 09:26:45;;;;;;;1999.90;999.90;;;;;;;;;;5032346;28;20555;-72
2021/12/26 09:29:31;;;;;;;1999.90;999.90;;;;;;;;;;5031830;28;20475;-71
2021/12/26 09:32:16;;;;;;;1999.90;999.90;;;;;;;;;;5032207;28;20443;-72
2021/12/26 09:35:01;;;;;;;1999.90;999.90;;;;;;;;;;5032070;28;20869;-72
2021/12/26 09:37:47;;;;;;;1999.90;999.90;;;;;;;;;;5032066;28;20968;-72
2021/12/26 09:40:32;;;;;;;1999.90;999.90;;;;;;;;;;5032204;28;20412;-71
2021/12/26 09:43:17;;;;;;;1999.90;999.90;;;;;;;;;;5031827;28;20411;-71
2021/12/26 09:46:02;;;;;;;1999.90;999.90;;;;;;;;;;5032108;28;20426;-72
2021/12/26 09:48:47;;;;;;;1999.90;999.90;;;;;;;;;;5031740;28;20783;-71
2021/12/26 09:51:32;;;;;;;1999.90;999.90;;;;;;;;;;5031705;28;20439;-72
2021/12/26 09:54:19;;;;;;;1999.90;999.90;;;;;;;;;;5032023;28;20945;-71
2021/12/26 09:57:05;;;;;;;1999.90;999.90;;;;;;;;;;5032170;28;20411;-72
2021/12/26 09:59:51;;;;;;;1999.90;999.90;;;;;;;;;;5031644;28;20419;-72
2021/12/26 10:02:36;;;;;;;1999.90;999.90;;;;;;;;;;5031763;28;20471;-72
2021/12/26 10:05:21;;;;;;;1999.90;999.90;;;;;;;;;;5031601;28;20415;-71
2021/12/26 10:08:06;;;;;;;1999.90;999.90;;;;;;;;;;5031489;28;20942;-71
2021/12/26 10:11:09;;;;;;;1999.90;999.90;;;;;;;;;;5031462;28;20814;-71
2021/12/26 10:13:56;;;;;;;1999.90;999.90;;;;;;;;;;5031912;28;20424;-72
2021/12/26 10:16:42;;;;;;;1999.90;999.90;;;;;;;;;;5031777;28;20547;-71
2021/12/26 10:19:32;;;;;;;1999.90;999.90;;;;;;;;;;5031551;28;20412;-72
2021/12/26 10:22:17;;;;;;;1999.90;999.90;;;;;;;;;;5031593;28;20435;-72
2021/12/26 10:25:08;;;;;;;1999.90;999.90;;;;;;;;;;5030478;28;20928;-72
2021/12/26 10:28:09;;;;;;;1999.90;999.90;;;;;;;;;;5031542;28;20233;-72
2021/12/26 10:30:54;;;;;;;1999.90;999.90;;;;;;;;;;5031430;28;20464;-72
2021/12/26 10:33:48;;;;;;;1999.90;999.90;;;;;;;;;;5031568;28;20906;-72
2021/12/26 10:36:33;;;;;;;1999.90;999.90;;;;;;;;;;5035350;28;20419;-72
2021/12/26 10:39:19;;;;;;;1999.90;999.90;;;;;;;;;;5035233;28;20543;-72
2021/12/26 10:42:06;;;;;;;1999.90;999.90;;;;;;;;;;5035369;28;20435;-72
2021/12/26 10:44:53;;;;;;;1999.90;999.90;;;;;;;;;;5035494;28;20788;-71
2021/12/26 10:47:39;;;;;;;1999.90;999.90;;;;;;;;;;5035178;28;20469;-71
2021/12/26 10:50:26;;;;;;;1999.90;999.90;;;;;;;;;;5035083;28;20447;-71
2021/12/26 10:53:14;;;;;;;1999.90;999.90;;;;;;;;;;5035495;28;20554;-72
2021/12/26 10:56:08;;;;;;;1999.90;999.90;;;;;;;;;;5035242;28;20419;-72
2021/12/26 10:58:53;;;;;;;1999.90;999.90;;;;;;;;;;5034890;28;20822;-70
2021/12/26 11:01:42;;;;;;;1999.90;999.90;;;;;;;;;;5035078;28;20459;-70
2021/12/26 11:04:27;;;;;;;1999.90;999.90;;;;;;;;;;5035083;28;20792;-72
2021/12/26 11:07:12;;;;;;;1999.90;999.90;;;;;;;;;;5035411;28;20550;-71
2021/12/26 11:10:01;;;;;;;1999.90;999.90;;;;;;;;;;5034368;28;20466;-71
2021/12/26 11:12:47;;;;;;;1999.90;999.90;;;;;;;;;;5034937;28;20539;-71
2021/12/26 11:15:34;;;;;;;1999.90;999.90;;;;;;;;;;5034919;28;20416;-72
2021/12/26 11:18:20;;;;;;;1999.90;999.90;;;;;;;;;;5034634;28;20483;-72
2021/12/26 11:21:06;;;;;;;1999.90;999.90;;;;;;;;;;5034729;28;20438;-72
2021/12/26 11:23:52;;;;;;;1999.90;999.90;;;;;;;;;;5034993;28;20543;-71
2021/12/26 11:26:37;;;;;;;1999.90;999.90;;;;;;;;;;5034715;28;20937;-72
2021/12/26 11:29:22;;;;;;;1999.90;999.90;;;;;;;;;;5034252;28;20521;-72
2021/12/26 11:32:07;;;;;;;1999.90;999.90;;;;;;;;;;5034500;28;21012;-72
2021/12/26 11:34:54;;;;;;;1999.90;999.90;;;;;;;;;;5034776;28;20439;-72
2021/12/26 11:37:40;;;;;;;1999.90;999.90;;;;;;;;;;5034324;28;20411;-72
2021/12/26 11:40:25;;;;;;;1999.90;999.90;;;;;;;;;;5034372;28;20427;-72
2021/12/26 11:43:40;;;;;;;1999.90;999.90;;;;;;;;;;5034424;28;20420;-72
2021/12/26 11:46:30;;;;;;;1999.90;999.90;;;;;;;;;;4933557;29;20516;-72
2021/12/26 11:49:29;;;;;;;1999.90;999.90;;;;;;;;;;5034667;28;20210;-72
2021/12/26 11:52:29;;;;;;;1999.90;999.90;;;;;;;;;;5034583;28;20433;-72
2021/12/26 11:55:25;;;;;;;1999.90;999.90;;;;;;;;;;5033801;28;20415;-73
2021/12/26 11:58:31;;;;;;;1999.90;999.90;;;;;;;;;;5033834;28;20941;-72
2021/12/26 12:01:17;;;;;;;1999.90;999.90;;;;;;;;;;5033781;28;20459;-73
2021/12/26 12:04:10;;;;;;;1999.90;999.90;;;;;;;;;;5034091;28;20411;-72
2021/12/26 12:06:56;;;;;;;1999.90;999.90;;;;;;;;;;5034007;28;20412;-70
2021/12/26 12:09:46;;;;;;;1999.90;999.90;;;;;;;;;;5033575;28;20464;-72
2021/12/26 12:12:41;;;;;;;1999.90;999.90;;;;;;;;;;5034014;28;21089;-72
2021/12/26 12:15:40;;;;;;;1999.90;999.90;;;;;;;;;;5033538;28;20568;-71
2021/12/26 12:18:26;;;;;;;1999.90;999.90;;;;;;;;;;5033449;28;20411;-72
2021/12/26 12:21:13;;;;;;;1999.90;999.90;;;;;;;;;;5033685;28;20576;-71
2021/12/26 12:24:00;;;;;;;1999.90;999.90;;;;;;;;;;5033617;28;20415;-72
2021/12/26 12:26:51;;;;;;;1999.90;999.90;;;;;;;;;;5033702;28;20419;-71
2021/12/26 12:29:57;;;;;;;1999.90;999.90;;;;;;;;;;5032998;28;21066;-72
2021/12/26 12:32:42;;;;;;;1999.90;999.90;;;;;;;;;;5033644;28;20572;-72
2021/12/26 12:35:47;;;;;;;1999.90;999.90;;;;;;;;;;5033263;28;20797;-72
2021/12/26 12:38:34;;;;;;;1999.90;999.90;;;;;;;;;;5032979;28;20457;-72
2021/12/26 12:41:35;;;;;;;1999.90;999.90;;;;;;;;;;5033133;28;20527;-71
2021/12/26 12:44:32;;;;;;;1999.90;999.90;;;;;;;;;;5032019;28;20921;-72
2021/12/26 12:47:19;;;;;;;1999.90;999.90;;;;;;;;;;5032915;28;20209;-71
2021/12/26 12:50:04;;;;;;;1999.90;999.90;;;;;;;;;;5032637;28;20837;-72
2021/12/26 12:52:50;;;;;;;1999.90;999.90;;;;;;;;;;5032782;28;20492;-72
2021/12/26 12:55:50;;;;;;;1999.90;999.90;;;;;;;;;;5033165;28;20473;-72
2021/12/26 12:58:36;;;;;;;1999.90;999.90;;;;;;;;;;5032384;28;20430;-72
2021/12/26 13:01:38;;;;;;;1999.90;999.90;;;;;;;;;;5032757;28;20527;-72
2021/12/26 13:04:24;;;;;;;1999.90;999.90;;;;;;;;;;5032790;28;20410;-72
2021/12/26 13:07:10;;;;;;;1999.90;999.90;;;;;;;;;;5032925;28;20421;-72
2021/12/26 13:09:56;;;;;;;1999.90;999.90;;;;;;;;;;5032077;28;20469;-72
2021/12/26 13:12:41;;;;;;;1999.90;999.90;;;;;;;;;;5031535;28;20917;-72
2021/12/26 13:15:26;;;;;;;1999.90;999.90;;;;;;;;;;5032708;28;20670;-72
2021/12/26 13:18:12;;;;;;;1999.90;999.90;;;;;;;;;;5032283;28;20453;-72
2021/12/26 13:20:59;;;;;;;1999.90;999.90;;;;;;;;;;5032604;28;20428;-71
2021/12/26 13:23:46;;;;;;;1999.90;999.90;;;;;;;;;;5032461;28;20433;-72
2021/12/26 13:26:31;;;;;;;1999.90;999.90;;;;;;;;;;5032527;28;20417;-70
2021/12/26 13:29:15;;;;;;;1999.90;999.90;;;;;;;;;;5032613;28;20782;-72
2021/12/26 13:32:00;;;;;;;1999.90;999.90;;;;;;;;;;5032167;28;21083;-72
2021/12/26 13:34:54;;;;;;;1999.90;999.90;;;;;;;;;;5032510;28;20423;-71
2021/12/26 13:37:39;;;;;;;1999.90;999.90;;;;;;;;;;5030198;28;20978;-74
2021/12/26 13:40:24;;;;;;;1999.90;999.90;;;;;;;;;;5034498;28;20445;-72
2021/12/26 13:43:09;;;;;;;1999.90;999.90;;;;;;;;;;5035107;28;20982;-71
2021/12/26 13:45:55;;;;;;;1999.90;999.90;;;;;;;;;;5028962;28;20456;-73
2021/12/26 13:48:42;;;;;;;1999.90;999.90;;;;;;;;;;5021885;28;20565;-73
2021/12/26 13:51:30;;;;;;;1999.90;999.90;;;;;;;;;;5020358;28;20616;-73
2021/12/26 13:54:23;;;;;;;1999.90;999.90;;;;;;;;;;5020325;28;20455;-73
2021/12/26 13:57:11;;;;;;;1999.90;999.90;;;;;;;;;;5021878;28;20503;-73
2021/12/26 13:59:56;;;;;;;1999.90;999.90;;;;;;;;;;5018051;28;20530;-71
2021/12/26 14:02:43;;;;;;;1999.90;999.90;;;;;;;;;;5023749;28;20553;-73
2021/12/26 14:05:28;;;;;;;1999.90;999.90;;;;;;;;;;5018265;28;20819;-74
2021/12/26 14:08:15;;;;;;;1999.90;999.90;;;;;;;;;;5020337;28;20531;-72
2021/12/26 14:11:01;;;;;;;1999.90;999.90;;;;;;;;;;5032686;28;20477;-72
2021/12/26 14:13:48;;;;;;;1999.90;999.90;;;;;;;;;;5031905;28;20522;-73
2021/12/26 14:16:41;;;;;;;1999.90;999.90;;;;;;;;;;5027579;28;20462;-74
2021/12/26 14:19:26;;;;;;;1999.90;999.90;;;;;;;;;;5030591;28;20442;-72
2021/12/26 14:22:11;;;;;;;1999.90;999.90;;;;;;;;;;5028667;28;20877;-72
2021/12/26 14:24:57;;;;;;;1999.90;999.90;;;;;;;;;;5026795;28;20523;-71
2021/12/26 14:27:42;;;;;;;1999.90;999.90;;;;;;;;;;5047875;28;21057;-73
2021/12/26 14:30:27;;;;;;;1999.90;999.90;;;;;;;;;;5033145;28;20479;-72
2021/12/26 14:33:13;;;;;;;1999.90;999.90;;;;;;;;;;5050971;28;20417;-72
2021/12/26 14:35:59;;;;;;;1999.90;999.90;;;;;;;;;;5039712;28;20412;-72
2021/12/26 14:38:50;;;;;;;1999.90;999.90;;;;;;;;;;5031274;28;20211;-70
2021/12/26 14:41:38;;;;;;;1999.90;999.90;;;;;;;;;;5019101;28;20449;-73
2021/12/26 14:44:24;;;;;;;1999.90;999.90;;;;;;;;;;5016814;28;20468;-73
2021/12/26 14:47:11;;;;;;;1999.90;999.90;;;;;;;;;;5020525;28;20563;-72
2021/12/26 14:49:57;;;;;;;1999.90;999.90;;;;;;;;;;5019362;28;20880;-71
2021/12/26 14:52:43;;;;;;;1999.90;999.90;;;;;;;;;;5018452;28;20812;-72
2021/12/26 14:55:32;;;;;;;1999.90;999.90;;;;;;;;;;5029448;28;20947;-72
2021/12/26 14:58:18;;;;;;;1999.90;999.90;;;;;;;;;;5010826;28;20414;-72
2021/12/26 15:01:03;;;;;;;1999.90;999.90;;;;;;;;;;5011390;28;20454;-71
2021/12/26 15:03:48;;;;;;;1999.90;999.90;;;;;;;;;;5021885;28;20505;-73
2021/12/26 15:06:42;;;;;;;1999.90;999.90;;;;;;;;;;5028487;28;20959;-70
2021/12/26 15:09:34;;;;;;;1999.90;999.90;;;;;;;;;;5030778;28;20430;-72
2021/12/26 15:12:28;;;;;;;1999.90;999.90;;;;;;;;;;5021820;28;21022;-72
2021/12/26 15:15:26;;;;;;;1999.90;999.90;;;;;;;;;;5031102;28;20496;-70
2021/12/26 15:18:13;;;;;;;1999.90;999.90;;;;;;;;;;5030544;28;20478;-71
2021/12/26 15:20:59;;;;;;;1999.90;999.90;;;;;;;;;;5031799;28;20480;-73
2021/12/26 15:23:44;;;;;;;1999.90;999.90;;;;;;;;;;5038729;28;20432;-73
2021/12/26 15:26:29;;;;;;;1999.90;999.90;;;;;;;;;;5035904;28;20581;-72
2021/12/26 15:29:14;;;;;;;1999.90;999.90;;;;;;;;;;5038931;28;20435;-73
2021/12/26 15:32:10;;;;;;;1999.90;999.90;;;;;;;;;;5039703;28;20551;-72
2021/12/26 15:34:55;;;;;;;1999.90;999.90;;;;;;;;;;5035415;28;20450;-75
2021/12/26 15:37:43;;;;;;;1999.90;999.90;;;;;;;;;;5025319;28;21055;-74
2021/12/26 15:40:28;;;;;;;1999.90;999.90;;;;;;;;;;5036523;28;20452;-73
2021/12/26 15:43:13;;;;;;;1999.90;999.90;;;;;;;;;;5030065;28;20831;-72
2021/12/26 15:45:58;;;;;;;1999.90;999.90;;;;;;;;;;5031573;28;20446;-73
2021/12/26 15:48:44;;;;;;;1999.90;999.90;;;;;;;;;;5035316;28;20988;-70
2021/12/26 15:51:30;;;;;;;1999.90;999.90;;;;;;;;;;5030692;28;20480;-73
2021/12/26 15:54:15;;;;;;;1999.90;999.90;;;;;;;;;;5039845;28;20591;-73
2021/12/26 15:57:00;;;;;;;1999.90;999.90;;;;;;;;;;5030348;28;20583;-71
2021/12/26 15:59:45;;;;;;;1999.90;999.90;;;;;;;;;;5035216;28;20436;-74
2021/12/26 16:02:30;;;;;;;1999.90;999.90;;;;;;;;;;5031503;28;20539;-74
2021/12/26 16:05:16;;;;;;;1999.90;999.90;;;;;;;;;;5033850;28;20587;-73
2021/12/26 16:08:01;;;;;;;1999.90;999.90;;;;;;;;;;5036143;28;20588;-74
2021/12/26 16:10:46;;;;;;;1999.90;999.90;;;;;;;;;;5022716;28;20544;-72
2021/12/26 16:13:31;;;;;;;1999.90;999.90;;;;;;;;;;5032674;28;20462;-74
2021/12/26 16:16:16;;;;;;;1999.90;999.90;;;;;;;;;;5042339;28;20471;-74
2021/12/26 16:19:01;;;;;;;1999.90;999.90;;;;;;;;;;5033293;28;20449;-72
2021/12/26 16:21:49;;;;;;;1999.90;999.90;;;;;;;;;;5030712;28;20469;-72
2021/12/26 16:24:34;;;;;;;1999.90;999.90;;;;;;;;;;5040277;28;20825;-73
2021/12/26 16:27:19;;;;;;;1999.90;999.90;;;;;;;;;;5039672;28;20447;-72
2021/12/26 16:30:04;;;;;;;1999.90;999.90;;;;;;;;;;5032326;28;20585;-73
2021/12/26 16:32:49;;;;;;;1999.90;999.90;;;;;;;;;;5031731;28;20481;-73
2021/12/26 16:35:34;;;;;;;1999.90;999.90;;;;;;;;;;5027027;28;20457;-73
2021/12/26 16:38:22;;;;;;;1999.90;999.90;;;;;;;;;;5031863;28;20523;-75
2021/12/26 16:41:09;;;;;;;1999.90;999.90;;;;;;;;;;5031196;28;20464;-75
2021/12/26 16:43:54;;;;;;;1999.90;999.90;;;;;;;;;;5031742;28;20469;-75
2021/12/26 16:46:39;;;;;;;1999.90;999.90;;;;;;;;;;5025715;28;21079;-74
2021/12/26 16:49:24;;;;;;;1999.90;999.90;;;;;;;;;;5030278;28;20522;-74
2021/12/26 16:52:09;;;;;;;1999.90;999.90;;;;;;;;;;5023811;28;20601;-73
2021/12/26 16:54:56;;;;;;;1999.90;999.90;;;;;;;;;;5034216;28;20459;-74
2021/12/26 16:57:41;;;;;;;1999.90;999.90;;;;;;;;;;5031330;28;20999;-74
2021/12/26 17:00:26;;;;;;;1999.90;999.90;;;;;;;;;;5034330;28;21106;-75
2021/12/26 17:03:12;;;;;;;1999.90;999.90;;;;;;;;;;5028375;28;20441;-73
2021/12/26 17:05:57;;;;;;;1999.90;999.90;;;;;;;;;;5031788;28;20505;-75
2021/12/26 17:08:44;;;;;;;1999.90;999.90;;;;;;;;;;5035078;28;20791;-75
2021/12/26 17:11:30;;;;;;;1999.90;999.90;;;;;;;;;;5030812;28;20486;-74
2021/12/26 17:14:15;;;;;;;1999.90;999.90;;;;;;;;;;5030951;28;20507;-74
2021/12/26 17:17:00;;;;;;;1999.90;999.90;;;;;;;;;;5031364;28;20457;-73
2021/12/26 17:19:45;;;;;;;1999.90;999.90;;;;;;;;;;5032994;28;20489;-74
2021/12/26 17:22:30;;;;;;;1999.90;999.90;;;;;;;;;;5030434;28;20232;-73
2021/12/26 17:25:16;;;;;;;1999.90;999.90;;;;;;;;;;5030688;28;20978;-75
2021/12/26 17:28:02;;;;;;;1999.90;999.90;;;;;;;;;;5026396;28;20450;-75
2021/12/26 17:30:47;;;;;;;1999.90;999.90;;;;;;;;;;5036907;28;20472;-74
2021/12/26 17:33:33;;;;;;;1999.90;999.90;;;;;;;;;;5028412;28;21159;-75
2021/12/26 17:36:18;;;;;;;1999.90;999.90;;;;;;;;;;5029481;28;20459;-74
2021/12/26 17:39:03;;;;;;;1999.90;999.90;;;;;;;;;;5025209;28;20454;-76
2021/12/26 17:41:48;;;;;;;1999.90;999.90;;;;;;;;;;5036097;28;20677;-75
2021/12/26 17:44:34;;;;;;;1999.90;999.90;;;;;;;;;;5029492;28;20496;-75
2021/12/26 17:47:19;;;;;;;1999.90;999.90;;;;;;;;;;5030095;28;20994;-76
2021/12/26 17:50:05;;;;;;;1999.90;999.90;;;;;;;;;;5040792;28;20520;-75
2021/12/26 17:52:50;;;;;;;1999.90;999.90;;;;;;;;;;5038925;28;20458;-74
2021/12/26 17:55:35;;;;;;;1999.90;999.90;;;;;;;;;;5042288;28;20447;-74
2021/12/26 17:58:19;;;;;;;1999.90;999.90;;;;;;;;;;5030576;28;20452;-74
2021/12/26 18:01:06;;;;;;;1999.90;999.90;;;;;;;;;;5039308;28;20887;-75
2021/12/26 18:03:52;;;;;;;1999.90;999.90;;;;;;;;;;5043610;28;20606;-74
2021/12/26 18:06:38;;;;;;;1999.90;999.90;;;;;;;;;;5039572;28;20576;-75
2021/12/26 18:09:23;;;;;;;1999.90;999.90;;;;;;;;;;5032979;28;20719;-73
2021/12/26 18:12:08;;;;;;;1999.90;999.90;;;;;;;;;;5030029;28;20551;-75
2021/12/26 18:14:53;;;;;;;1999.90;999.90;;;;;;;;;;5031222;28;20896;-74
2021/12/26 18:17:39;;;;;;;1999.90;999.90;;;;;;;;;;5026469;28;20583;-75
2021/12/26 18:20:25;;;;;;;1999.90;999.90;;;;;;;;;;5022773;28;20460;-74
2021/12/26 18:23:11;;;;;;;1999.90;999.90;;;;;;;;;;5029337;28;21050;-75
2021/12/26 18:25:56;;;;;;;1999.90;999.90;;;;;;;;;;5024515;28;20586;-73
2021/12/26 18:28:40;;;;;;;1999.90;999.90;;;;;;;;;;5024037;28;20520;-75
2021/12/26 18:31:26;;;;;;;1999.90;999.90;;;;;;;;;;5029680;28;20580;-74
2021/12/26 18:34:13;;;;;;;1999.90;999.90;;;;;;;;;;5032746;28;20456;-75
2021/12/26 18:36:58;;;;;;;1999.90;999.90;;;;;;;;;;5032707;28;20467;-74
2021/12/26 18:39:43;;;;;;;1999.90;999.90;;;;;;;;;;5028076;28;20798;-75
2021/12/26 18:42:27;;;;;;;1999.90;999.90;;;;;;;;;;5031723;28;20236;-75
2021/12/26 18:45:12;;;;;;;1999.90;999.90;;;;;;;;;;5034208;28;20521;-75
2021/12/26 18:47:57;;;;;;;1999.90;999.90;;;;;;;;;;5030049;28;20996;-74
2021/12/26 18:50:44;;;;;;;1999.90;999.90;;;;;;;;;;5032720;28;20469;-74
2021/12/26 18:53:29;;;;;;;1999.90;999.90;;;;;;;;;;5028425;28;20976;-74
2021/12/26 18:56:14;;;;;;;1999.90;999.90;;;;;;;;;;5037805;28;21064;-75
2021/12/26 18:59:00;;;;;;;1999.90;999.90;;;;;;;;;;5037134;28;20454;-75
2021/12/26 19:01:45;;;;;;;1999.90;999.90;;;;;;;;;;5033316;28;20482;-75
2021/12/26 19:04:30;;;;;;;1999.90;999.90;;;;;;;;;;5043000;28;20967;-75
2021/12/26 19:07:16;;;;;;;1999.90;999.90;;;;;;;;;;5041869;28;20480;-75
2021/12/26 19:10:02;;;;;;;1999.90;999.90;;;;;;;;;;5036555;28;20445;-74
2021/12/26 19:12:47;;;;;;;1999.90;999.90;;;;;;;;;;5033487;28;20501;-75
2021/12/26 19:15:32;;;;;;;1999.90;999.90;;;;;;;;;;5033446;28;20986;-75
2021/12/26 19:18:17;;;;;;;1999.90;999.90;;;;;;;;;;5028481;28;20467;-76
2021/12/26 19:21:04;;;;;;;1999.90;999.90;;;;;;;;;;5033252;28;20465;-74
2021/12/26 19:23:50;;;;;;;1999.90;999.90;;;;;;;;;;5033178;28;20453;-75
2021/12/26 19:26:35;;;;;;;1999.90;999.90;;;;;;;;;;5031976;28;20453;-75
2021/12/26 19:29:20;;;;;;;1999.90;999.90;;;;;;;;;;5041321;28;20584;-75
2021/12/26 19:32:07;;;;;;;1999.90;999.90;;;;;;;;;;5039303;28;20462;-75
2021/12/26 19:34:52;;;;;;;1999.90;999.90;;;;;;;;;;5040769;28;20983;-74
2021/12/26 19:37:38;;;;;;;1999.90;999.90;;;;;;;;;;5033046;28;20544;-75
2021/12/26 19:40:27;;;;;;;1999.90;999.90;;;;;;;;;;5032271;28;20443;-74
2021/12/26 19:43:15;;;;;;;1999.90;999.90;;;;;;;;;;5042948;28;20503;-75
2021/12/26 19:46:00;;;;;;;1999.90;999.90;;;;;;;;;;5039705;28;20942;-74
2021/12/26 19:48:47;;;;;;;1999.90;999.90;;;;;;;;;;5052760;28;20609;-74
2021/12/26 19:51:33;;;;;;;1999.90;999.90;;;;;;;;;;5038637;28;20473;-75
2021/12/26 19:54:18;;;;;;;1999.90;999.90;;;;;;;;;;5029741;28;20446;-74
2021/12/26 19:57:06;;;;;;;1999.90;999.90;;;;;;;;;;5032501;28;20431;-75
2021/12/26 19:59:51;;;;;;;1999.90;999.90;;;;;;;;;;5026256;28;20209;-74
2021/12/26 20:02:36;;;;;;;1999.90;999.90;;;;;;;;;;5039340;28;20477;-75
2021/12/26 20:05:21;;;;;;;1999.90;999.90;;;;;;;;;;5029265;28;20461;-74
2021/12/26 20:08:07;;;;;;;1999.90;999.90;;;;;;;;;;5030965;28;20209;-76
2021/12/26 20:10:52;;;;;;;1999.90;999.90;;;;;;;;;;5028722;28;20474;-75
2021/12/26 20:13:38;;;;;;;1999.90;999.90;;;;;;;;;;5030937;28;20246;-76
2021/12/26 20:16:24;;;;;;;1999.90;999.90;;;;;;;;;;5032532;28;20248;-75
2021/12/26 20:19:16;;;;;;;1999.90;999.90;;;;;;;;;;5030696;28;20224;-74
2021/12/26 20:22:03;;;;;;;1999.90;999.90;;;;;;;;;;5024220;28;20233;-76
2021/12/26 20:24:48;;;;;;;1999.90;999.90;;;;;;;;;;5032375;28;20209;-76
2021/12/26 20:27:33;;;;;;;1999.90;999.90;;;;;;;;;;5032531;28;20211;-74
2021/12/26 20:30:19;;;;;;;1999.90;999.90;;;;;;;;;;5031893;28;20256;-75
2021/12/26 20:33:04;;;;;;;1999.90;999.90;;;;;;;;;;5031596;28;20225;-75
2021/12/26 20:35:49;;;;;;;1999.90;999.90;;;;;;;;;;5032163;28;20210;-74
2021/12/26 20:38:36;;;;;;;1999.90;999.90;;;;;;;;;;5031920;28;20973;-74
2021/12/26 20:41:21;;;;;;;1999.90;999.90;;;;;;;;;;5031565;28;20559;-76
2021/12/26 20:44:07;;;;;;;1999.90;999.90;;;;;;;;;;5031473;28;20211;-77
2021/12/26 20:46:54;;;;;;;1999.90;999.90;;;;;;;;;;5026867;28;20703;-74
2021/12/26 20:49:39;;;;;;;1999.90;999.90;;;;;;;;;;5031715;28;20457;-74
2021/12/26 20:52:24;;;;;;;1999.90;999.90;;;;;;;;;;5034087;28;20471;-75
2021/12/26 20:55:10;;;;;;;1999.90;999.90;;;;;;;;;;5040634;28;20302;-73
2021/12/26 20:57:55;;;;;;;1999.90;999.90;;;;;;;;;;5024847;28;20213;-74
2021/12/26 21:00:40;;;;;;;1999.90;999.90;;;;;;;;;;5031817;28;20210;-74
2021/12/26 21:03:26;;;;;;;1999.90;999.90;;;;;;;;;;5037917;28;20699;-75
2021/12/26 21:06:11;;;;;;;1999.90;999.90;;;;;;;;;;5026141;28;20292;-74
2021/12/26 21:08:56;;;;;;;1999.90;999.90;;;;;;;;;;5028447;28;20334;-74
2021/12/26 21:11:41;;;;;;;1999.90;999.90;;;;;;;;;;5032890;28;20738;-74
2021/12/26 21:14:26;;;;;;;1999.90;999.90;;;;;;;;;;5032847;28;20434;-75
2021/12/26 21:17:10;;;;;;;1999.90;999.90;;;;;;;;;;5038231;28;20427;-75
2021/12/26 21:19:57;;;;;;;1999.90;999.90;;;;;;;;;;5031567;28;20284;-73
2021/12/26 21:22:42;;;;;;;1999.90;999.90;;;;;;;;;;5030230;28;20532;-74
2021/12/26 21:25:26;;;;;;;1999.90;999.90;;;;;;;;;;5035986;28;20722;-74
2021/12/26 21:28:11;;;;;;;1999.90;999.90;;;;;;;;;;5035781;28;20485;-74
2021/12/26 21:30:56;;;;;;;1999.90;999.90;;;;;;;;;;5028235;28;20767;-75